Hovedside
METAR-TAF:

METAR-TAF

Lufthavner :

Jönköping lufthavn

Jönköping, Sverige

breddegrad: 57-46N, lengdegrad: 014-05E, høyde over havet: 226 m

Gjeldene værobservasjon

Denne rapporten ble laget for 8 minutter siden, klokken 14:20 UTC
Vind 6 kt fra Nord-nordvest
Temperatur 20°C
Luftfuktighet 83%
Trykk 1014 hPa
Sikt 10 km eller mer
Få skyer i en høyde av 3500 ft
Brutte skyer i en høyde av 8200 ft
lett regn

METAR: ESGJ 181420Z 34006KT 9999 -RA FEW035 BKN082 20/17 Q1014 RERA

Tid: 16:28 (14:28 UTC)

Varsel

Denne rapporten ble laget for 2 timer og 58 minutter siden, klokken 11:30 UTC
Varsel gyldig fra 18. klokken 12 UTC til 18. klokken 21 UTC
Vind 3 kt fra skiftende retning
Sikt 10 km eller mer
ingen skyer under 1500 m og ingen bygeskyer
Midlertidig
fra 18. klokken 12 UTC til 18. klokken 21 UTC
Brutte skyer i en høyde av 4000 ft, Bygeskyer.
regnbyger

TAF: ESGJ 181130Z 1812/1821 VRB03KT CAVOK TEMPO 1812/1821 SHRA BKN040CB

Værobservasjoner og værvarsel for over 4000 flyplasser (METAR- og TAF-rapporter).

Tilgjengelige stasjoner er representert av de røde og gule prikkene på kartet.

Hold musepekeren over prikken for å se navnet på stasjonen.

Klikk så for å se værobservasjoner og -varsler.

For å forandre kartet kan du klikke på den grønne knappen med svart kryss for å zoome inn, på den grønne knappen med strek for å zoome ut, eller på de grønne pilene for å se tilstøtende kart.


METAR-TAF: